createdAt,value
2022-10-26T00:01:13.694Z,3.40
2022-10-26T00:03:43.192Z,3.22
2022-10-26T00:06:20.752Z,3.58
2022-10-26T00:08:49.192Z,3.50
2022-10-26T00:11:17.491Z,3.50
2022-10-26T00:13:45.901Z,3.55
2022-10-26T00:16:31.475Z,3.92
2022-10-26T00:18:58.698Z,3.42
2022-10-26T00:21:25.977Z,4.80
2022-10-26T00:23:53.182Z,3.85
2022-10-26T00:26:20.467Z,3.50
2022-10-26T00:28:47.730Z,3.83
2022-10-26T00:31:16.176Z,3.78
2022-10-26T00:33:43.787Z,3.80
2022-10-26T00:36:13.895Z,3.15
2022-10-26T00:38:46.032Z,3.22
2022-10-26T00:41:31.811Z,3.22
2022-10-26T00:44:00.794Z,3.50
2022-10-26T00:46:36.075Z,2.40
2022-10-26T00:49:11.072Z,2.95
2022-10-26T00:51:50.771Z,2.78
2022-10-26T00:54:19.675Z,3.10
2022-10-26T00:56:52.411Z,4.93
2022-10-26T00:59:21.406Z,3.47
2022-10-26T01:01:50.052Z,2.72
2022-10-26T01:04:18.542Z,3.20
2022-10-26T01:06:46.785Z,3.03
2022-10-26T01:09:14.199Z,4.13
2022-10-26T01:11:41.504Z,3.08
2022-10-26T01:14:11.651Z,3.25
2022-10-26T01:17:22.370Z,3.80
2022-10-26T01:20:45.034Z,3.28
2022-10-26T01:23:42.877Z,3.70
2022-10-26T01:26:40.786Z,3.67
2022-10-26T01:29:26.328Z,3.40
2022-10-26T01:32:31.125Z,3.25
2022-10-26T01:35:27.464Z,3.80
2022-10-26T01:38:31.301Z,4.13
2022-10-26T01:41:22.809Z,3.17
2022-10-26T01:43:59.673Z,3.17
2022-10-26T01:46:30.094Z,3.40
2022-10-26T01:49:04.592Z,3.22
2022-10-26T01:51:33.158Z,3.22
2022-10-26T01:54:00.365Z,3.75
2022-10-26T01:56:37.053Z,3.10
2022-10-26T01:59:22.971Z,3.15
2022-10-26T02:01:52.128Z,3.00
2022-10-26T02:05:08.653Z,4.70
2022-10-26T02:08:05.086Z,3.35
2022-10-26T02:11:11.238Z,3.83
2022-10-26T02:13:52.854Z,3.20
2022-10-26T02:16:27.720Z,4.85
2022-10-26T02:19:29.510Z,4.00
2022-10-26T02:22:31.027Z,3.55
2022-10-26T02:25:04.932Z,4.05
2022-10-26T02:27:37.967Z,3.13
2022-10-26T02:30:06.776Z,3.10
2022-10-26T02:32:39.856Z,3.88
2022-10-26T02:35:07.625Z,4.10
2022-10-26T02:37:38.896Z,3.28
2022-10-26T02:40:15.582Z,3.33
2022-10-26T02:42:46.200Z,3.42
2022-10-26T02:45:21.282Z,3.05
2022-10-26T02:47:49.326Z,2.60
2022-10-26T02:50:18.741Z,3.13
2022-10-26T02:53:11.829Z,3.53
2022-10-26T02:55:46.801Z,2.90
2022-10-26T02:58:23.895Z,3.35
2022-10-26T03:00:52.901Z,2.65
2022-10-26T03:03:21.089Z,2.60
2022-10-26T03:05:48.480Z,3.30
2022-10-26T03:08:15.881Z,3.05
2022-10-26T03:10:45.590Z,2.63
2022-10-26T03:13:14.099Z,2.83
2022-10-26T03:15:41.921Z,2.42
2022-10-26T03:18:09.240Z,2.80
2022-10-26T03:20:36.426Z,3.03
2022-10-26T03:23:03.824Z,2.25
2022-10-26T03:25:30.998Z,2.65
2022-10-26T03:28:03.862Z,2.50
2022-10-26T03:30:32.225Z,3.00
2022-10-26T03:32:59.699Z,2.33
2022-10-26T03:35:27.058Z,2.38
2022-10-26T03:37:54.966Z,2.58
2022-10-26T03:40:22.227Z,2.55
2022-10-26T03:42:49.643Z,3.13
2022-10-26T03:45:17.213Z,2.80
2022-10-26T03:47:49.798Z,3.13
2022-10-26T03:50:22.588Z,2.92
2022-10-26T03:52:50.727Z,2.72
2022-10-26T03:55:19.504Z,2.88
2022-10-26T03:57:46.828Z,3.00
2022-10-26T04:00:17.317Z,2.80
2022-10-26T04:02:48.931Z,2.88
2022-10-26T04:05:16.806Z,3.70
2022-10-26T04:07:44.245Z,3.70
2022-10-26T04:10:11.720Z,3.08
2022-10-26T04:12:39.082Z,3.53
2022-10-26T04:15:07.519Z,3.35
2022-10-26T04:17:34.940Z,3.05
2022-10-26T04:20:02.614Z,2.92
2022-10-26T04:22:30.136Z,3.30
2022-10-26T04:24:57.598Z,3.22
2022-10-26T04:27:24.996Z,3.65
2022-10-26T04:29:52.304Z,3.78
2022-10-26T04:32:19.600Z,3.50
2022-10-26T04:34:46.881Z,3.60
2022-10-26T04:37:14.169Z,3.20
2022-10-26T04:39:41.437Z,3.10
2022-10-26T04:42:08.730Z,3.20
2022-10-26T04:44:36.021Z,3.20
2022-10-26T04:47:03.263Z,3.70
2022-10-26T04:49:30.434Z,3.40
2022-10-26T04:51:57.682Z,3.53
2022-10-26T04:54:24.853Z,3.70
2022-10-26T04:56:52.432Z,4.25
2022-10-26T04:59:19.665Z,4.00
2022-10-26T05:01:47.111Z,3.88
2022-10-26T05:04:14.698Z,3.97
2022-10-26T05:06:41.963Z,4.25
2022-10-26T05:09:09.375Z,4.80
2022-10-26T05:11:36.678Z,5.13
2022-10-26T05:14:04.258Z,4.20
2022-10-26T05:16:31.449Z,4.05
2022-10-26T05:18:58.759Z,4.75
2022-10-26T05:21:25.945Z,4.05
2022-10-26T05:23:56.654Z,5.30
2022-10-26T05:26:24.529Z,4.70
2022-10-26T05:28:53.355Z,4.70
2022-10-26T05:31:21.512Z,5.22
2022-10-26T05:33:52.399Z,4.18
2022-10-26T05:36:20.425Z,5.93
2022-10-26T05:38:48.049Z,5.25
2022-10-26T05:41:15.289Z,5.50
2022-10-26T05:43:42.450Z,6.45
2022-10-26T05:46:09.622Z,6.15
2022-10-26T05:48:36.832Z,6.82
2022-10-26T05:51:07.159Z,5.47
2022-10-26T05:53:34.604Z,4.75
2022-10-26T05:56:04.895Z,4.38
2022-10-26T05:58:34.965Z,3.58
2022-10-26T06:01:40.757Z,3.63
2022-10-26T06:04:32.809Z,3.40
2022-10-26T06:07:00.922Z,2.70
2022-10-26T06:09:28.892Z,3.30
2022-10-26T06:11:56.576Z,3.80
2022-10-26T06:14:24.415Z,2.85
2022-10-26T06:16:55.310Z,3.13
2022-10-26T06:19:47.414Z,3.78
2022-10-26T06:22:48.600Z,3.72
2022-10-26T06:25:45.857Z,3.78
2022-10-26T06:28:39.007Z,3.58
2022-10-26T06:31:06.838Z,3.88
2022-10-26T06:33:34.574Z,6.05
2022-10-26T06:36:19.892Z,3.42
2022-10-26T06:38:49.303Z,3.17
2022-10-26T06:41:19.401Z,4.10
2022-10-26T06:43:47.196Z,2.97
2022-10-26T06:46:49.899Z,3.75
2022-10-26T06:49:31.664Z,3.15
2022-10-26T06:52:26.730Z,3.70
2022-10-26T06:54:55.784Z,2.65
2022-10-26T06:57:28.347Z,2.55
2022-10-26T07:00:14.799Z,2.80
2022-10-26T07:02:42.667Z,2.70
2022-10-26T07:05:12.979Z,2.17
2022-10-26T07:07:48.533Z,2.80
2022-10-26T07:10:16.543Z,2.08
2022-10-26T07:12:44.473Z,2.08
2022-10-26T07:15:12.363Z,2.05
2022-10-26T07:17:48.752Z,1.70
2022-10-26T07:20:23.006Z,1.70
2022-10-26T07:22:56.920Z,1.65
2022-10-26T07:25:26.160Z,1.65
2022-10-26T07:27:57.588Z,2.00
2022-10-26T07:30:26.567Z,2.33
2022-10-26T07:33:12.871Z,1.70
2022-10-26T07:35:41.124Z,2.17
2022-10-26T07:38:09.018Z,2.45
2022-10-26T07:40:38.170Z,2.80
2022-10-26T07:43:05.491Z,2.50
2022-10-26T07:45:32.844Z,2.15
2022-10-26T07:48:00.170Z,2.00
2022-10-26T07:50:27.418Z,2.30
2022-10-26T07:52:54.819Z,2.10
2022-10-26T07:55:22.137Z,2.13
2022-10-26T07:57:51.248Z,1.70
2022-10-26T08:00:22.146Z,2.03
2022-10-26T08:02:49.433Z,1.88
2022-10-26T08:05:17.019Z,1.80
2022-10-26T08:07:45.775Z,1.88
2022-10-26T08:10:14.871Z,2.15
2022-10-26T08:12:44.009Z,1.80
2022-10-26T08:15:11.638Z,2.17
2022-10-26T08:17:39.125Z,1.88
2022-10-26T08:20:07.160Z,2.00
2022-10-26T08:22:34.356Z,1.70
2022-10-26T08:25:01.719Z,1.70
2022-10-26T08:27:29.099Z,1.50
2022-10-26T08:29:56.388Z,1.80
2022-10-26T08:32:23.691Z,1.65
2022-10-26T08:34:50.933Z,1.80
2022-10-26T08:37:18.215Z,1.98
2022-10-26T08:39:48.132Z,2.17
2022-10-26T08:42:25.534Z,1.60
2022-10-26T08:45:03.876Z,1.73
2022-10-26T08:47:43.938Z,2.47
2022-10-26T08:50:47.499Z,2.50
2022-10-26T08:53:49.342Z,1.75
2022-10-26T08:56:29.195Z,1.65
2022-10-26T09:01:45.296Z,1.77
2022-10-26T09:04:13.581Z,1.50
2022-10-26T09:07:14.788Z,1.52
2022-10-26T09:09:56.992Z,1.50
2022-10-26T09:12:49.011Z,1.60
2022-10-26T09:16:14.751Z,1.92
2022-10-26T09:19:29.350Z,1.10
2022-10-26T09:22:05.551Z,1.20
2022-10-26T09:24:42.589Z,1.17
2022-10-26T09:27:24.060Z,1.17
2022-10-26T09:29:52.747Z,1.10
2022-10-26T09:32:46.397Z,1.10
2022-10-26T09:35:25.843Z,1.00
2022-10-26T09:38:09.016Z,1.65
2022-10-26T09:41:05.912Z,1.10
2022-10-26T09:43:50.743Z,0.90
2022-10-26T09:46:25.192Z,1.30
2022-10-26T09:48:58.714Z,0.90
2022-10-26T09:51:27.332Z,1.33
2022-10-26T09:53:57.855Z,1.25
2022-10-26T09:56:26.501Z,1.08
2022-10-26T09:59:03.401Z,2.17
2022-10-26T10:01:38.611Z,1.23
2022-10-26T10:04:20.171Z,1.08
2022-10-26T10:07:14.213Z,0.93
2022-10-26T10:09:41.574Z,3.92
2022-10-26T10:12:21.140Z,1.00
2022-10-26T10:14:59.592Z,1.20
2022-10-26T10:17:27.260Z,1.00
2022-10-26T10:19:54.801Z,1.33
2022-10-26T10:22:25.981Z,0.93
2022-10-26T10:24:59.835Z,1.13
2022-10-26T10:27:29.014Z,1.20
2022-10-26T10:30:01.638Z,1.08
2022-10-26T10:32:35.757Z,2.53
2022-10-26T10:35:30.067Z,1.27
2022-10-26T10:37:57.958Z,1.50
2022-10-26T10:40:31.526Z,1.55
2022-10-26T10:43:12.963Z,1.63
2022-10-26T10:45:41.534Z,1.30
2022-10-26T10:48:23.175Z,1.63
2022-10-26T10:51:05.573Z,1.35
2022-10-26T10:54:04.969Z,1.50
2022-10-26T10:56:42.265Z,2.80
2022-10-26T10:59:30.922Z,3.13
2022-10-26T11:02:20.417Z,9.40
2022-10-26T11:05:12.574Z,6.97
2022-10-26T11:07:52.669Z,9.68
2022-10-26T11:10:22.536Z,3.55
2022-10-26T11:15:28.357Z,1.58
2022-10-26T11:18:14.265Z,1.52
2022-10-26T11:20:49.810Z,2.58
2022-10-26T11:23:29.539Z,3.10
2022-10-26T11:28:48.722Z,1.10
2022-10-26T11:31:27.638Z,1.40
2022-10-26T11:34:06.597Z,1.13
2022-10-26T11:36:36.092Z,1.40
2022-10-26T11:39:51.763Z,1.02
2022-10-26T11:42:30.337Z,1.30
2022-10-26T11:45:11.259Z,1.50
2022-10-26T11:47:57.686Z,1.27
2022-10-26T11:50:35.917Z,1.20
2022-10-26T11:53:19.662Z,1.20
2022-10-26T11:55:54.497Z,1.50
2022-10-26T11:58:28.496Z,1.30
2022-10-26T12:01:09.360Z,1.50
2022-10-26T12:03:48.823Z,1.65
2022-10-26T12:06:20.827Z,1.75
2022-10-26T12:09:06.363Z,1.92
2022-10-26T12:11:58.775Z,3.53
2022-10-26T12:14:44.152Z,1.67
2022-10-26T12:17:27.779Z,3.33
2022-10-26T12:20:19.117Z,2.45
2022-10-26T12:22:47.414Z,2.40
2022-10-26T12:25:15.354Z,1.80
2022-10-26T12:27:42.881Z,2.50
2022-10-26T12:30:16.060Z,2.47
2022-10-26T12:32:48.516Z,1.92
2022-10-26T12:35:41.440Z,1.90
2022-10-26T12:38:48.563Z,2.10
2022-10-26T12:41:22.870Z,1.50
2022-10-26T12:43:50.816Z,1.85
2022-10-26T12:46:18.015Z,2.17
2022-10-26T12:48:47.134Z,2.47
2022-10-26T12:51:39.759Z,2.77
2022-10-26T12:54:41.931Z,2.42
2022-10-26T12:57:36.048Z,1.25
2022-10-26T13:00:06.214Z,1.75
2022-10-26T13:02:33.326Z,1.52
2022-10-26T13:06:10.070Z,1.20
2022-10-26T13:08:51.594Z,1.33
2022-10-26T13:11:35.956Z,0.95
2022-10-26T13:14:07.592Z,1.38
2022-10-26T13:16:35.486Z,1.30
2022-10-26T13:19:02.737Z,1.23
2022-10-26T13:21:30.196Z,1.30
2022-10-26T13:24:05.716Z,1.25
2022-10-26T13:26:53.894Z,1.67
2022-10-26T13:29:30.900Z,1.40
2022-10-26T13:31:59.334Z,1.00
2022-10-26T13:34:31.915Z,0.90
2022-10-26T13:37:14.289Z,1.30
2022-10-26T13:39:48.074Z,1.38
2022-10-26T13:42:20.431Z,1.60
2022-10-26T13:45:06.935Z,1.60
2022-10-26T13:48:14.509Z,1.20
2022-10-26T13:50:59.975Z,1.13
2022-10-26T13:53:49.760Z,1.35
2022-10-26T13:56:26.229Z,1.00
2022-10-26T13:59:15.737Z,1.13
2022-10-26T14:01:45.795Z,1.00
2022-10-26T14:04:28.139Z,1.10
2022-10-26T14:06:55.939Z,1.23
2022-10-26T14:09:23.402Z,1.35
2022-10-26T14:12:01.037Z,0.85
2022-10-26T14:14:35.023Z,0.95
2022-10-26T14:17:03.224Z,0.60
2022-10-26T14:19:35.906Z,1.10
2022-10-26T14:22:04.314Z,1.58
2022-10-26T14:24:48.428Z,1.40
2022-10-26T14:27:23.117Z,0.80
2022-10-26T14:30:21.966Z,0.77
2022-10-26T14:32:42.801Z,0.90
2022-10-26T14:35:16.587Z,0.60
2022-10-26T14:38:12.297Z,1.50
2022-10-26T14:40:39.718Z,0.80
2022-10-26T14:43:08.335Z,0.88
2022-10-26T14:45:54.690Z,0.63
2022-10-26T14:48:35.797Z,0.75
2022-10-26T14:51:16.553Z,0.60
2022-10-26T14:53:51.503Z,0.73
2022-10-26T14:56:46.481Z,0.68
2022-10-26T14:59:28.558Z,1.00
2022-10-26T15:02:10.788Z,0.90
2022-10-26T15:04:41.359Z,0.93
2022-10-26T15:09:51.782Z,1.00
2022-10-26T15:12:36.006Z,0.68
2022-10-26T15:15:23.733Z,1.00
2022-10-26T15:17:55.593Z,1.08
2022-10-26T15:20:26.624Z,0.80
2022-10-26T15:23:03.873Z,0.70
2022-10-26T15:25:34.917Z,0.95
2022-10-26T15:28:39.370Z,0.68
2022-10-26T15:31:11.789Z,0.80
2022-10-26T15:33:52.528Z,0.75
2022-10-26T15:36:26.810Z,1.50
2022-10-26T15:38:55.731Z,1.10
2022-10-26T15:41:38.832Z,1.00
2022-10-26T15:44:16.518Z,1.15
2022-10-26T15:46:43.832Z,1.65
2022-10-26T15:49:18.991Z,1.80
2022-10-26T15:51:48.600Z,1.95
2022-10-26T15:54:16.221Z,1.20
2022-10-26T15:56:45.360Z,1.65
2022-10-26T15:59:18.619Z,1.65
2022-10-26T16:01:46.129Z,1.90
2022-10-26T16:04:13.519Z,1.67
2022-10-26T16:06:42.333Z,2.30
2022-10-26T16:09:18.093Z,2.40
2022-10-26T16:11:45.805Z,2.40
2022-10-26T16:14:13.295Z,2.17
2022-10-26T16:16:41.390Z,1.90
2022-10-26T16:19:29.128Z,4.03
2022-10-26T16:21:58.532Z,3.60
2022-10-26T16:24:27.461Z,4.20
2022-10-26T16:26:54.826Z,5.05
2022-10-26T16:29:22.375Z,5.57
2022-10-26T16:31:49.690Z,6.03
2022-10-26T16:34:17.108Z,5.35
2022-10-26T16:36:44.308Z,5.30
2022-10-26T16:39:13.350Z,5.03
2022-10-26T16:41:40.651Z,5.07
2022-10-26T16:44:07.888Z,5.25
2022-10-26T16:46:35.204Z,4.80
2022-10-26T16:49:02.422Z,5.45
2022-10-26T16:51:29.682Z,6.15
2022-10-26T16:53:58.121Z,4.78
2022-10-26T16:56:30.226Z,3.83
2022-10-26T16:58:57.694Z,4.18
2022-10-26T17:01:25.827Z,4.22
2022-10-26T17:03:53.734Z,4.57
2022-10-26T17:06:22.913Z,5.38
2022-10-26T17:08:50.308Z,4.40
2022-10-26T17:11:20.746Z,4.65
2022-10-26T17:13:52.891Z,4.40
2022-10-26T17:16:22.327Z,3.70
2022-10-26T17:18:50.251Z,4.70
2022-10-26T17:21:21.137Z,3.67
2022-10-26T17:23:48.490Z,2.95
2022-10-26T17:26:15.912Z,3.60
2022-10-26T17:28:43.293Z,3.75
2022-10-26T17:31:16.130Z,3.60
2022-10-26T17:33:45.461Z,3.65
2022-10-26T17:36:16.636Z,3.20
2022-10-26T17:38:44.315Z,3.28
2022-10-26T17:41:14.529Z,2.95
2022-10-26T17:43:44.086Z,3.35
2022-10-26T17:46:26.499Z,3.22
2022-10-26T17:48:56.585Z,3.30
2022-10-26T17:51:24.315Z,3.65
2022-10-26T17:53:51.836Z,10.30
2022-10-26T17:56:24.719Z,6.00
2022-10-26T17:58:57.585Z,7.30
2022-10-26T18:01:25.870Z,9.35
2022-10-26T18:03:53.971Z,8.80
2022-10-26T18:06:22.493Z,8.68
2022-10-26T18:08:50.112Z,7.28
2022-10-26T18:11:26.158Z,7.03
2022-10-26T18:13:58.441Z,7.13
2022-10-26T18:16:27.885Z,6.32
2022-10-26T18:19:01.877Z,6.40
2022-10-26T18:21:34.962Z,6.15
2022-10-26T18:24:02.253Z,6.13
2022-10-26T18:26:31.263Z,4.93
2022-10-26T18:29:01.165Z,5.50
2022-10-26T18:31:30.894Z,5.33
2022-10-26T18:34:00.897Z,6.07
2022-10-26T18:36:29.148Z,4.82
2022-10-26T18:38:56.861Z,5.45
2022-10-26T18:41:26.184Z,5.68
2022-10-26T18:43:58.818Z,5.53
2022-10-26T18:46:33.546Z,5.95
2022-10-26T18:49:01.261Z,5.60
2022-10-26T18:51:34.688Z,5.85
2022-10-26T18:54:02.413Z,6.45
2022-10-26T18:56:30.125Z,5.10
2022-10-26T18:58:59.545Z,7.95
2022-10-26T19:01:30.927Z,7.03
2022-10-26T19:04:02.256Z,7.45
2022-10-26T19:06:47.513Z,7.05
2022-10-26T19:09:17.826Z,7.25
2022-10-26T19:11:45.978Z,6.88
2022-10-26T19:14:13.909Z,6.95
2022-10-26T19:16:46.381Z,6.45
2022-10-26T19:19:19.367Z,7.03
2022-10-26T19:21:49.505Z,6.80
2022-10-26T19:24:21.347Z,6.05
2022-10-26T19:26:50.644Z,7.13
2022-10-26T19:29:19.678Z,5.60
2022-10-26T19:31:50.355Z,4.78
2022-10-26T19:34:17.944Z,4.47
2022-10-26T19:36:47.375Z,5.80
2022-10-26T19:39:17.329Z,6.30
2022-10-26T19:41:46.388Z,5.78
2022-10-26T19:44:15.217Z,5.45
2022-10-26T19:46:43.835Z,5.67
2022-10-26T19:49:13.075Z,5.35
2022-10-26T19:51:40.630Z,5.47
2022-10-26T19:54:08.703Z,5.18
2022-10-26T19:56:37.549Z,5.22
2022-10-26T19:59:06.456Z,5.10
2022-10-26T20:01:34.749Z,5.40
2022-10-26T20:04:02.916Z,5.15
2022-10-26T20:06:31.106Z,4.75
2022-10-26T20:09:00.121Z,4.55
2022-10-26T20:11:27.591Z,3.85
2022-10-26T20:13:56.534Z,4.28
2022-10-26T20:16:24.603Z,5.38
2022-10-26T20:18:52.008Z,5.28
2022-10-26T20:21:20.782Z,6.93
2022-10-26T20:23:48.133Z,6.55
2022-10-26T20:26:18.993Z,7.15
2022-10-26T20:28:50.967Z,6.97
2022-10-26T20:31:19.512Z,7.63
2022-10-26T20:33:51.784Z,6.65
2022-10-26T20:36:19.222Z,7.13
2022-10-26T20:38:47.165Z,8.38
2022-10-26T20:41:14.870Z,7.20
2022-10-26T20:43:42.973Z,7.65
2022-10-26T20:46:23.535Z,6.80
2022-10-26T20:48:52.583Z,6.50
2022-10-26T20:51:39.910Z,6.13
2022-10-26T20:54:48.528Z,7.20
2022-10-26T20:57:21.594Z,7.47
2022-10-26T20:59:57.775Z,7.57
2022-10-26T21:02:25.038Z,5.57
2022-10-26T21:04:52.327Z,6.13
2022-10-26T21:07:19.486Z,5.22
2022-10-26T21:09:46.827Z,5.10
2022-10-26T21:12:14.096Z,4.65
2022-10-26T21:14:41.375Z,4.60
2022-10-26T21:17:09.802Z,4.18
2022-10-26T21:19:37.979Z,4.07
2022-10-26T21:22:05.433Z,3.58
2022-10-26T21:24:33.049Z,4.25
2022-10-26T21:27:00.275Z,4.47
2022-10-26T21:29:27.539Z,3.78
2022-10-26T21:31:54.711Z,4.10
2022-10-26T21:34:21.988Z,3.70
2022-10-26T21:36:49.276Z,3.40
2022-10-26T21:39:16.549Z,2.92
2022-10-26T21:41:44.152Z,3.55
2022-10-26T21:44:24.647Z,3.78
2022-10-26T21:46:58.700Z,3.88
2022-10-26T21:49:26.157Z,3.97
2022-10-26T21:51:53.431Z,4.40
2022-10-26T21:54:20.614Z,4.53
2022-10-26T21:56:47.961Z,4.65
2022-10-26T21:59:15.249Z,3.95
2022-10-26T22:01:42.633Z,4.85
2022-10-26T22:04:13.135Z,3.92
2022-10-26T22:06:40.403Z,4.18
2022-10-26T22:09:07.807Z,4.18
2022-10-26T22:11:35.113Z,5.10
2022-10-26T22:14:02.598Z,4.75
2022-10-26T22:16:32.840Z,4.80
2022-10-26T22:19:06.042Z,5.13
2022-10-26T22:21:39.759Z,5.70
2022-10-26T22:24:08.497Z,6.20
2022-10-26T22:26:37.456Z,6.50
2022-10-26T22:29:05.727Z,5.38
2022-10-26T22:31:37.571Z,5.72
2022-10-26T22:34:08.489Z,6.07
2022-10-26T22:36:36.107Z,5.78
2022-10-26T22:39:04.288Z,5.78
2022-10-26T22:41:31.570Z,6.90
2022-10-26T22:43:58.886Z,5.55
2022-10-26T22:46:28.328Z,5.63
2022-10-26T22:49:01.464Z,5.00
2022-10-26T22:51:33.203Z,5.55
2022-10-26T22:54:02.989Z,5.30
2022-10-26T22:56:32.652Z,5.85
2022-10-26T22:59:00.810Z,6.07
2022-10-26T23:01:31.850Z,5.40
2022-10-26T23:04:00.627Z,6.57
2022-10-26T23:06:31.371Z,6.72
2022-10-26T23:11:28.410Z,6.55
2022-10-26T23:14:02.049Z,5.40
2022-10-26T23:16:30.368Z,5.88
2022-10-26T23:18:59.424Z,5.07
2022-10-26T23:21:28.477Z,6.63
2022-10-26T23:23:56.347Z,4.95
2022-10-26T23:26:23.818Z,5.38
2022-10-26T23:28:51.137Z,4.93
2022-10-26T23:31:21.942Z,4.53
2022-10-26T23:33:54.656Z,4.53
2022-10-26T23:36:22.536Z,4.80
2022-10-26T23:38:50.059Z,4.75
2022-10-26T23:41:17.430Z,4.60
2022-10-26T23:53:08.416Z,4.25
2022-10-26T23:55:35.770Z,4.45
2022-10-26T23:58:03.063Z,4.50
